sensor_id;sensor_type;location;lat;lon;timestamp;temperature;humidity
15705;DHT22;7952;48.396;12.806;2023-05-14T00:01:53;12.10;59.30
15705;DHT22;7952;48.396;12.806;2023-05-14T00:04:19;12.10;59.20
15705;DHT22;7952;48.396;12.806;2023-05-14T00:06:45;12.10;59.30
15705;DHT22;7952;48.396;12.806;2023-05-14T00:09:11;12.10;59.30
15705;DHT22;7952;48.396;12.806;2023-05-14T00:11:37;12.10;59.30
15705;DHT22;7952;48.396;12.806;2023-05-14T00:14:03;12.00;59.20
15705;DHT22;7952;48.396;12.806;2023-05-14T00:16:29;12.00;59.20
15705;DHT22;7952;48.396;12.806;2023-05-14T00:18:55;12.00;59.30
15705;DHT22;7952;48.396;12.806;2023-05-14T00:21:21;12.00;59.30
15705;DHT22;7952;48.396;12.806;2023-05-14T00:23:47;11.90;59.20
15705;DHT22;7952;48.396;12.806;2023-05-14T00:26:12;11.90;59.20
15705;DHT22;7952;48.396;12.806;2023-05-14T00:28:38;11.90;59.30
15705;DHT22;7952;48.396;12.806;2023-05-14T00:31:04;11.90;59.30
15705;DHT22;7952;48.396;12.806;2023-05-14T00:33:30;11.90;59.30
15705;DHT22;7952;48.396;12.806;2023-05-14T00:35:56;11.90;59.30
15705;DHT22;7952;48.396;12.806;2023-05-14T00:38:21;11.90;59.40
15705;DHT22;7952;48.396;12.806;2023-05-14T00:40:48;11.90;59.40
15705;DHT22;7952;48.396;12.806;2023-05-14T00:43:22;11.90;60.00
15705;DHT22;7952;48.396;12.806;2023-05-14T00:45:51;11.90;59.40
15705;DHT22;7952;48.396;12.806;2023-05-14T00:48:18;11.90;59.40
15705;DHT22;7952;48.396;12.806;2023-05-14T00:50:45;11.90;59.40
15705;DHT22;7952;48.396;12.806;2023-05-14T00:53:10;11.90;59.30
15705;DHT22;7952;48.396;12.806;2023-05-14T00:55:40;11.90;59.30
15705;DHT22;7952;48.396;12.806;2023-05-14T00:58:10;11.90;59.30
15705;DHT22;7952;48.396;12.806;2023-05-14T01:00:37;11.90;59.30
15705;DHT22;7952;48.396;12.806;2023-05-14T01:03:03;11.90;59.30
15705;DHT22;7952;48.396;12.806;2023-05-14T01:05:46;11.90;59.30
15705;DHT22;7952;48.396;12.806;2023-05-14T01:14:20;12.00;59.30
15705;DHT22;7952;48.396;12.806;2023-05-14T01:16:51;12.00;59.20
15705;DHT22;7952;48.396;12.806;2023-05-14T01:19:49;12.00;59.20
15705;DHT22;7952;48.396;12.806;2023-05-14T01:22:19;12.00;59.20
15705;DHT22;7952;48.396;12.806;2023-05-14T01:24:45;12.00;59.20
15705;DHT22;7952;48.396;12.806;2023-05-14T01:27:48;11.90;59.20
15705;DHT22;7952;48.396;12.806;2023-05-14T01:30:36;11.90;59.20
15705;DHT22;7952;48.396;12.806;2023-05-14T01:33:13;11.90;59.20
15705;DHT22;7952;48.396;12.806;2023-05-14T01:35:39;11.90;59.30
15705;DHT22;7952;48.396;12.806;2023-05-14T01:38:11;11.90;59.30
15705;DHT22;7952;48.396;12.806;2023-05-14T01:40:37;11.90;59.30
15705;DHT22;7952;48.396;12.806;2023-05-14T01:43:04;11.90;59.30
15705;DHT22;7952;48.396;12.806;2023-05-14T01:45:30;11.90;59.30
15705;DHT22;7952;48.396;12.806;2023-05-14T01:47:56;11.90;59.20
15705;DHT22;7952;48.396;12.806;2023-05-14T01:50:22;11.90;59.20
15705;DHT22;7952;48.396;12.806;2023-05-14T01:52:48;11.90;59.20
15705;DHT22;7952;48.396;12.806;2023-05-14T01:55:15;11.90;59.20
15705;DHT22;7952;48.396;12.806;2023-05-14T01:57:42;11.90;59.20
15705;DHT22;7952;48.396;12.806;2023-05-14T02:00:08;11.90;59.20
15705;DHT22;7952;48.396;12.806;2023-05-14T02:02:34;11.90;59.20
15705;DHT22;7952;48.396;12.806;2023-05-14T02:05:00;11.80;59.00
15705;DHT22;7952;48.396;12.806;2023-05-14T02:07:26;11.90;59.10
15705;DHT22;7952;48.396;12.806;2023-05-14T02:09:51;11.80;59.00
15705;DHT22;7952;48.396;12.806;2023-05-14T02:12:17;11.70;59.00
15705;DHT22;7952;48.396;12.806;2023-05-14T02:14:43;11.70;59.00
15705;DHT22;7952;48.396;12.806;2023-05-14T02:17:08;11.60;59.00
15705;DHT22;7952;48.396;12.806;2023-05-14T02:19:34;11.60;59.10
15705;DHT22;7952;48.396;12.806;2023-05-14T02:22:00;11.60;59.10
15705;DHT22;7952;48.396;12.806;2023-05-14T02:24:26;11.50;59.10
15705;DHT22;7952;48.396;12.806;2023-05-14T02:26:55;11.50;59.10
15705;DHT22;7952;48.396;12.806;2023-05-14T02:29:20;11.50;59.20
15705;DHT22;7952;48.396;12.806;2023-05-14T02:31:46;11.50;59.20
15705;DHT22;7952;48.396;12.806;2023-05-14T02:34:12;11.50;59.20
15705;DHT22;7952;48.396;12.806;2023-05-14T02:36:41;11.50;59.20
15705;DHT22;7952;48.396;12.806;2023-05-14T02:39:06;11.40;59.10
15705;DHT22;7952;48.396;12.806;2023-05-14T02:41:32;11.40;59.10
15705;DHT22;7952;48.396;12.806;2023-05-14T02:43:58;11.40;59.10
15705;DHT22;7952;48.396;12.806;2023-05-14T02:46:24;11.40;59.10
15705;DHT22;7952;48.396;12.806;2023-05-14T02:48:50;11.40;59.20
15705;DHT22;7952;48.396;12.806;2023-05-14T02:51:15;11.40;59.10
15705;DHT22;7952;48.396;12.806;2023-05-14T02:53:41;11.40;59.10
15705;DHT22;7952;48.396;12.806;2023-05-14T02:56:07;11.40;59.10
15705;DHT22;7952;48.396;12.806;2023-05-14T02:58:33;11.40;59.10
15705;DHT22;7952;48.396;12.806;2023-05-14T03:00:59;11.40;59.10
15705;DHT22;7952;48.396;12.806;2023-05-14T03:03:24;11.40;59.10
15705;DHT22;7952;48.396;12.806;2023-05-14T03:05:50;11.40;59.20
15705;DHT22;7952;48.396;12.806;2023-05-14T03:08:16;11.40;59.20
15705;DHT22;7952;48.396;12.806;2023-05-14T03:10:42;11.40;59.20
15705;DHT22;7952;48.396;12.806;2023-05-14T03:13:07;11.40;59.20
15705;DHT22;7952;48.396;12.806;2023-05-14T03:15:33;11.50;59.30
15705;DHT22;7952;48.396;12.806;2023-05-14T03:17:59;11.50;59.30
15705;DHT22;7952;48.396;12.806;2023-05-14T03:20:25;11.50;59.30
15705;DHT22;7952;48.396;12.806;2023-05-14T03:22:51;11.60;59.30
15705;DHT22;7952;48.396;12.806;2023-05-14T03:25:17;11.60;59.30
15705;DHT22;7952;48.396;12.806;2023-05-14T03:27:43;11.60;59.30
15705;DHT22;7952;48.396;12.806;2023-05-14T03:30:09;11.70;59.30
15705;DHT22;7952;48.396;12.806;2023-05-14T03:32:36;11.70;59.30
15705;DHT22;7952;48.396;12.806;2023-05-14T03:35:02;11.70;59.20
15705;DHT22;7952;48.396;12.806;2023-05-14T03:37:30;11.80;59.20
15705;DHT22;7952;48.396;12.806;2023-05-14T03:39:56;11.80;59.20
15705;DHT22;7952;48.396;12.806;2023-05-14T03:42:22;11.80;59.20
15705;DHT22;7952;48.396;12.806;2023-05-14T03:44:47;11.80;59.10
15705;DHT22;7952;48.396;12.806;2023-05-14T03:47:13;11.90;59.20
15705;DHT22;7952;48.396;12.806;2023-05-14T03:49:39;11.90;59.20
15705;DHT22;7952;48.396;12.806;2023-05-14T03:52:05;11.90;59.10
15705;DHT22;7952;48.396;12.806;2023-05-14T03:54:31;11.90;59.10
15705;DHT22;7952;48.396;12.806;2023-05-14T03:56:56;11.90;59.10
15705;DHT22;7952;48.396;12.806;2023-05-14T03:59:22;11.90;59.10
15705;DHT22;7952;48.396;12.806;2023-05-14T04:01:48;11.90;59.10
15705;DHT22;7952;48.396;12.806;2023-05-14T04:04:14;11.90;59.10
15705;DHT22;7952;48.396;12.806;2023-05-14T04:06:40;11.90;59.10
15705;DHT22;7952;48.396;12.806;2023-05-14T04:09:06;11.90;59.10
15705;DHT22;7952;48.396;12.806;2023-05-14T04:11:31;11.90;59.10
15705;DHT22;7952;48.396;12.806;2023-05-14T04:13:57;11.90;59.10
15705;DHT22;7952;48.396;12.806;2023-05-14T04:16:23;11.90;59.10
15705;DHT22;7952;48.396;12.806;2023-05-14T04:18:49;12.00;59.20
15705;DHT22;7952;48.396;12.806;2023-05-14T04:21:14;12.00;59.20
15705;DHT22;7952;48.396;12.806;2023-05-14T04:23:40;12.00;59.10
15705;DHT22;7952;48.396;12.806;2023-05-14T04:26:06;12.00;59.10
15705;DHT22;7952;48.396;12.806;2023-05-14T04:28:32;12.00;59.00
15705;DHT22;7952;48.396;12.806;2023-05-14T04:30:57;12.00;59.00
15705;DHT22;7952;48.396;12.806;2023-05-14T04:33:23;12.00;59.00
15705;DHT22;7952;48.396;12.806;2023-05-14T04:35:49;12.00;59.00
15705;DHT22;7952;48.396;12.806;2023-05-14T04:38:15;12.00;59.00
15705;DHT22;7952;48.396;12.806;2023-05-14T04:40:40;12.00;59.10
15705;DHT22;7952;48.396;12.806;2023-05-14T04:43:07;12.00;59.10
15705;DHT22;7952;48.396;12.806;2023-05-14T04:45:33;12.00;59.10
15705;DHT22;7952;48.396;12.806;2023-05-14T04:47:59;12.10;59.20
15705;DHT22;7952;48.396;12.806;2023-05-14T04:50:24;12.10;59.20
15705;DHT22;7952;48.396;12.806;2023-05-14T04:52:51;12.10;59.20
15705;DHT22;7952;48.396;12.806;2023-05-14T04:55:17;12.10;59.20
15705;DHT22;7952;48.396;12.806;2023-05-14T04:57:43;12.10;59.20
15705;DHT22;7952;48.396;12.806;2023-05-14T05:00:09;12.20;59.30
15705;DHT22;7952;48.396;12.806;2023-05-14T05:02:35;12.20;59.30
15705;DHT22;7952;48.396;12.806;2023-05-14T05:05:02;12.20;59.30
15705;DHT22;7952;48.396;12.806;2023-05-14T05:07:28;12.20;59.30
15705;DHT22;7952;48.396;12.806;2023-05-14T05:09:54;12.30;59.40
15705;DHT22;7952;48.396;12.806;2023-05-14T05:12:19;12.30;59.40
15705;DHT22;7952;48.396;12.806;2023-05-14T05:14:45;12.30;59.40
15705;DHT22;7952;48.396;12.806;2023-05-14T05:17:11;12.30;59.40
15705;DHT22;7952;48.396;12.806;2023-05-14T05:19:37;12.30;59.40
15705;DHT22;7952;48.396;12.806;2023-05-14T05:22:04;12.40;59.40
15705;DHT22;7952;48.396;12.806;2023-05-14T05:24:30;12.40;59.40
15705;DHT22;7952;48.396;12.806;2023-05-14T05:26:55;12.40;59.30
15705;DHT22;7952;48.396;12.806;2023-05-14T05:29:23;12.50;59.40
15705;DHT22;7952;48.396;12.806;2023-05-14T05:31:49;12.50;59.40
15705;DHT22;7952;48.396;12.806;2023-05-14T05:34:15;12.50;59.40
15705;DHT22;7952;48.396;12.806;2023-05-14T05:36:41;12.60;60.00
15705;DHT22;7952;48.396;12.806;2023-05-14T05:39:06;12.60;59.40
15705;DHT22;7952;48.396;12.806;2023-05-14T05:41:32;12.60;59.30
15705;DHT22;7952;48.396;12.806;2023-05-14T05:44:07;12.60;59.30
15705;DHT22;7952;48.396;12.806;2023-05-14T05:46:33;12.70;59.40
15705;DHT22;7952;48.396;12.806;2023-05-14T05:48:58;12.70;59.40
15705;DHT22;7952;48.396;12.806;2023-05-14T05:51:46;12.70;59.40
15705;DHT22;7952;48.396;12.806;2023-05-14T05:57:43;12.80;59.40
15705;DHT22;7952;48.396;12.806;2023-05-14T06:00:09;12.90;59.50
15705;DHT22;7952;48.396;12.806;2023-05-14T06:05:36;12.90;59.40
15705;DHT22;7952;48.396;12.806;2023-05-14T06:08:58;13.00;59.40
15705;DHT22;7952;48.396;12.806;2023-05-14T06:11:34;13.00;59.40
15705;DHT22;7952;48.396;12.806;2023-05-14T06:14:03;13.10;59.40
15705;DHT22;7952;48.396;12.806;2023-05-14T06:16:29;13.10;59.40
15705;DHT22;7952;48.396;12.806;2023-05-14T06:18:55;13.20;59.40
15705;DHT22;7952;48.396;12.806;2023-05-14T06:21:21;13.30;59.50
15705;DHT22;7952;48.396;12.806;2023-05-14T06:24:45;13.30;59.40
15705;DHT22;7952;48.396;12.806;2023-05-14T06:27:11;13.40;59.40
15705;DHT22;7952;48.396;12.806;2023-05-14T06:29:37;13.40;59.40
15705;DHT22;7952;48.396;12.806;2023-05-14T06:32:03;13.40;59.40
15705;DHT22;7952;48.396;12.806;2023-05-14T06:34:30;13.50;59.40
15705;DHT22;7952;48.396;12.806;2023-05-14T06:36:56;13.60;59.40
15705;DHT22;7952;48.396;12.806;2023-05-14T06:39:22;13.60;59.40
15705;DHT22;7952;48.396;12.806;2023-05-14T06:41:49;13.70;59.50
15705;DHT22;7952;48.396;12.806;2023-05-14T06:44:17;13.70;59.40
15705;DHT22;7952;48.396;12.806;2023-05-14T06:46:43;13.80;59.40
15705;DHT22;7952;48.396;12.806;2023-05-14T06:49:11;13.80;59.30
15705;DHT22;7952;48.396;12.806;2023-05-14T06:51:39;13.80;59.20
15705;DHT22;7952;48.396;12.806;2023-05-14T06:54:06;13.80;59.20
15705;DHT22;7952;48.396;12.806;2023-05-14T06:56:32;13.80;59.20
15705;DHT22;7952;48.396;12.806;2023-05-14T06:58:58;13.80;59.20
15705;DHT22;7952;48.396;12.806;2023-05-14T07:01:24;13.80;59.20
15705;DHT22;7952;48.396;12.806;2023-05-14T07:03:49;13.90;59.40
15705;DHT22;7952;48.396;12.806;2023-05-14T07:06:15;13.90;59.40
15705;DHT22;7952;48.396;12.806;2023-05-14T07:08:42;14.00;59.60
15705;DHT22;7952;48.396;12.806;2023-05-14T07:11:10;14.10;59.60
15705;DHT22;7952;48.396;12.806;2023-05-14T07:13:38;14.20;59.70
15705;DHT22;7952;48.396;12.806;2023-05-14T07:16:04;14.20;59.60
15705;DHT22;7952;48.396;12.806;2023-05-14T07:18:33;14.30;59.60
15705;DHT22;7952;48.396;12.806;2023-05-14T07:20:59;14.40;59.60
15705;DHT22;7952;48.396;12.806;2023-05-14T07:23:24;14.40;59.30
15705;DHT22;7952;48.396;12.806;2023-05-14T07:25:50;14.50;59.30
15705;DHT22;7952;48.396;12.806;2023-05-14T07:28:16;14.50;59.30
15705;DHT22;7952;48.396;12.806;2023-05-14T07:30:42;14.50;59.50
15705;DHT22;7952;48.396;12.806;2023-05-14T07:33:07;14.50;59.30
15705;DHT22;7952;48.396;12.806;2023-05-14T07:35:33;14.60;59.40
15705;DHT22;7952;48.396;12.806;2023-05-14T07:37:59;14.70;59.50
15705;DHT22;7952;48.396;12.806;2023-05-14T07:40:25;14.80;59.50
15705;DHT22;7952;48.396;12.806;2023-05-14T07:42:51;14.90;59.50
15705;DHT22;7952;48.396;12.806;2023-05-14T07:45:16;15.00;59.40
15705;DHT22;7952;48.396;12.806;2023-05-14T07:47:42;15.00;59.10
15705;DHT22;7952;48.396;12.806;2023-05-14T07:50:08;15.00;59.00
15705;DHT22;7952;48.396;12.806;2023-05-14T07:52:34;15.10;59.10
15705;DHT22;7952;48.396;12.806;2023-05-14T07:55:02;15.20;59.20
15705;DHT22;7952;48.396;12.806;2023-05-14T07:57:27;15.30;59.10
15705;DHT22;7952;48.396;12.806;2023-05-14T07:59:53;15.30;59.10
15705;DHT22;7952;48.396;12.806;2023-05-14T08:02:19;15.50;59.40
15705;DHT22;7952;48.396;12.806;2023-05-14T08:04:45;15.70;59.20
15705;DHT22;7952;48.396;12.806;2023-05-14T08:07:10;15.80;59.10
15705;DHT22;7952;48.396;12.806;2023-05-14T08:09:36;16.00;59.00
15705;DHT22;7952;48.396;12.806;2023-05-14T08:12:02;16.10;59.10
15705;DHT22;7952;48.396;12.806;2023-05-14T08:14:28;16.20;58.90
15705;DHT22;7952;48.396;12.806;2023-05-14T08:16:54;16.40;58.90
15705;DHT22;7952;48.396;12.806;2023-05-14T08:19:19;16.60;58.80
15705;DHT22;7952;48.396;12.806;2023-05-14T08:21:45;16.70;58.50
15705;DHT22;7952;48.396;12.806;2023-05-14T08:24:11;16.80;58.20
15705;DHT22;7952;48.396;12.806;2023-05-14T08:26:37;16.90;58.40
15705;DHT22;7952;48.396;12.806;2023-05-14T08:29:06;17.10;58.50
15705;DHT22;7952;48.396;12.806;2023-05-14T08:31:32;17.30;58.50
15705;DHT22;7952;48.396;12.806;2023-05-14T08:33:58;17.50;58.40
15705;DHT22;7952;48.396;12.806;2023-05-14T08:36:24;17.60;58.00
15705;DHT22;7952;48.396;12.806;2023-05-14T08:38:49;17.70;57.90
15705;DHT22;7952;48.396;12.806;2023-05-14T08:41:15;17.70;57.70
15705;DHT22;7952;48.396;12.806;2023-05-14T08:44:06;17.70;57.60
15705;DHT22;7952;48.396;12.806;2023-05-14T08:46:36;17.70;57.80
15705;DHT22;7952;48.396;12.806;2023-05-14T08:51:49;17.80;58.10
15705;DHT22;7952;48.396;12.806;2023-05-14T08:54:15;17.90;58.80
15705;DHT22;7952;48.396;12.806;2023-05-14T08:56:45;18.00;58.20
15705;DHT22;7952;48.396;12.806;2023-05-14T08:59:11;18.20;57.80
15705;DHT22;7952;48.396;12.806;2023-05-14T09:01:38;18.30;57.90
15705;DHT22;7952;48.396;12.806;2023-05-14T09:04:07;18.30;57.60
15705;DHT22;7952;48.396;12.806;2023-05-14T09:06:35;18.40;57.60
15705;DHT22;7952;48.396;12.806;2023-05-14T09:09:04;18.40;57.70
15705;DHT22;7952;48.396;12.806;2023-05-14T09:11:30;18.50;57.80
15705;DHT22;7952;48.396;12.806;2023-05-14T09:13:56;18.50;57.60
15705;DHT22;7952;48.396;12.806;2023-05-14T09:16:23;18.60;57.60
15705;DHT22;7952;48.396;12.806;2023-05-14T09:18:50;18.60;57.50
15705;DHT22;7952;48.396;12.806;2023-05-14T09:21:17;18.60;57.40
15705;DHT22;7952;48.396;12.806;2023-05-14T09:23:44;18.70;57.60
15705;DHT22;7952;48.396;12.806;2023-05-14T09:26:10;18.70;57.40
15705;DHT22;7952;48.396;12.806;2023-05-14T09:28:40;18.60;57.40
15705;DHT22;7952;48.396;12.806;2023-05-14T09:31:08;18.60;57.40
15705;DHT22;7952;48.396;12.806;2023-05-14T09:33:37;18.60;57.50
15705;DHT22;7952;48.396;12.806;2023-05-14T09:36:03;18.60;57.50
15705;DHT22;7952;48.396;12.806;2023-05-14T09:38:33;18.60;57.60
15705;DHT22;7952;48.396;12.806;2023-05-14T09:40:59;18.60;57.70
15705;DHT22;7952;48.396;12.806;2023-05-14T09:43:25;18.70;57.70
15705;DHT22;7952;48.396;12.806;2023-05-14T09:45:52;18.70;57.70
15705;DHT22;7952;48.396;12.806;2023-05-14T09:48:18;18.70;57.30
15705;DHT22;7952;48.396;12.806;2023-05-14T09:50:45;18.70;57.50
15705;DHT22;7952;48.396;12.806;2023-05-14T09:53:12;18.70;57.40
15705;DHT22;7952;48.396;12.806;2023-05-14T09:55:38;18.70;57.40
15705;DHT22;7952;48.396;12.806;2023-05-14T09:58:04;18.70;57.30
15705;DHT22;7952;48.396;12.806;2023-05-14T10:00:31;18.70;57.90
15705;DHT22;7952;48.396;12.806;2023-05-14T10:02:58;18.70;57.40
15705;DHT22;7952;48.396;12.806;2023-05-14T10:05:24;18.60;57.20
15705;DHT22;7952;48.396;12.806;2023-05-14T10:07:53;18.60;57.30
15705;DHT22;7952;48.396;12.806;2023-05-14T10:10:21;18.60;57.30
15705;DHT22;7952;48.396;12.806;2023-05-14T10:13:01;18.60;57.40
15705;DHT22;7952;48.396;12.806;2023-05-14T10:18:09;18.70;57.50
15705;DHT22;7952;48.396;12.806;2023-05-14T10:20:37;18.70;57.30
15705;DHT22;7952;48.396;12.806;2023-05-14T10:23:05;18.80;57.40
15705;DHT22;7952;48.396;12.806;2023-05-14T10:25:35;18.90;57.40
15705;DHT22;7952;48.396;12.806;2023-05-14T10:28:03;18.90;57.30
15705;DHT22;7952;48.396;12.806;2023-05-14T10:30:33;19.00;57.20
15705;DHT22;7952;48.396;12.806;2023-05-14T10:33:13;19.00;57.50
15705;DHT22;7952;48.396;12.806;2023-05-14T10:38:38;18.90;56.90
15705;DHT22;7952;48.396;12.806;2023-05-14T10:41:15;18.90;56.90
15705;DHT22;7952;48.396;12.806;2023-05-14T10:43:43;18.90;57.00
15705;DHT22;7952;48.396;12.806;2023-05-14T10:46:11;18.80;56.90
15705;DHT22;7952;48.396;12.806;2023-05-14T10:48:41;18.80;57.00
15705;DHT22;7952;48.396;12.806;2023-05-14T10:51:11;18.90;57.00
15705;DHT22;7952;48.396;12.806;2023-05-14T10:53:41;18.90;56.90
15705;DHT22;7952;48.396;12.806;2023-05-14T10:56:09;18.80;56.80
15705;DHT22;7952;48.396;12.806;2023-05-14T10:58:36;18.80;56.80
15705;DHT22;7952;48.396;12.806;2023-05-14T11:01:03;18.80;56.70
15705;DHT22;7952;48.396;12.806;2023-05-14T11:03:31;18.80;57.00
15705;DHT22;7952;48.396;12.806;2023-05-14T11:05:58;18.90;57.20
15705;DHT22;7952;48.396;12.806;2023-05-14T11:08:26;19.00;57.30
15705;DHT22;7952;48.396;12.806;2023-05-14T11:10:53;19.20;57.20
15705;DHT22;7952;48.396;12.806;2023-05-14T11:13:20;19.30;57.00
15705;DHT22;7952;48.396;12.806;2023-05-14T11:15:46;19.40;56.60
15705;DHT22;7952;48.396;12.806;2023-05-14T11:18:25;19.40;56.40
15705;DHT22;7952;48.396;12.806;2023-05-14T11:20:52;19.40;56.20
15705;DHT22;7952;48.396;12.806;2023-05-14T11:23:18;19.40;56.20
15705;DHT22;7952;48.396;12.806;2023-05-14T11:25:45;19.40;56.30
15705;DHT22;7952;48.396;12.806;2023-05-14T11:28:11;19.40;56.40
15705;DHT22;7952;48.396;12.806;2023-05-14T11:30:40;19.50;56.40
15705;DHT22;7952;48.396;12.806;2023-05-14T11:33:06;19.60;56.40
15705;DHT22;7952;48.396;12.806;2023-05-14T11:35:35;19.70;56.40
15705;DHT22;7952;48.396;12.806;2023-05-14T11:38:04;19.80;56.40
15705;DHT22;7952;48.396;12.806;2023-05-14T11:40:30;20.00;56.30
15705;DHT22;7952;48.396;12.806;2023-05-14T11:42:56;20.10;56.30
15705;DHT22;7952;48.396;12.806;2023-05-14T11:45:26;20.30;56.30
15705;DHT22;7952;48.396;12.806;2023-05-14T11:47:54;20.50;56.10
15705;DHT22;7952;48.396;12.806;2023-05-14T11:50:21;20.60;55.60
15705;DHT22;7952;48.396;12.806;2023-05-14T11:52:47;20.60;55.40
15705;DHT22;7952;48.396;12.806;2023-05-14T11:55:16;20.60;55.20
15705;DHT22;7952;48.396;12.806;2023-05-14T11:57:42;20.50;55.00
15705;DHT22;7952;48.396;12.806;2023-05-14T12:00:10;20.50;55.10
15705;DHT22;7952;48.396;12.806;2023-05-14T12:02:47;20.50;55.20
15705;DHT22;7952;48.396;12.806;2023-05-14T12:05:17;20.40;55.00
15705;DHT22;7952;48.396;12.806;2023-05-14T12:07:46;20.40;55.00
15705;DHT22;7952;48.396;12.806;2023-05-14T12:10:16;20.40;55.10
15705;DHT22;7952;48.396;12.806;2023-05-14T12:12:44;20.40;55.20
15705;DHT22;7952;48.396;12.806;2023-05-14T12:15:12;20.40;55.00
15705;DHT22;7952;48.396;12.806;2023-05-14T12:17:42;20.30;54.90
15705;DHT22;7952;48.396;12.806;2023-05-14T12:23:33;20.10;54.80
15705;DHT22;7952;48.396;12.806;2023-05-14T12:26:38;19.90;54.80
15705;DHT22;7952;48.396;12.806;2023-05-14T12:29:07;19.80;55.00
15705;DHT22;7952;48.396;12.806;2023-05-14T12:31:46;19.80;55.10
15705;DHT22;7952;48.396;12.806;2023-05-14T12:34:12;19.70;55.10
15705;DHT22;7952;48.396;12.806;2023-05-14T12:36:43;19.70;55.10
15705;DHT22;7952;48.396;12.806;2023-05-14T12:39:12;19.60;55.10
15705;DHT22;7952;48.396;12.806;2023-05-14T12:41:41;19.60;55.10
15705;DHT22;7952;48.396;12.806;2023-05-14T12:44:09;19.60;55.30
15705;DHT22;7952;48.396;12.806;2023-05-14T12:46:35;19.70;55.20
15705;DHT22;7952;48.396;12.806;2023-05-14T12:49:04;19.80;55.10
15705;DHT22;7952;48.396;12.806;2023-05-14T12:51:31;19.80;55.10
15705;DHT22;7952;48.396;12.806;2023-05-14T12:53:57;19.80;54.90
15705;DHT22;7952;48.396;12.806;2023-05-14T12:56:23;19.80;54.80
15705;DHT22;7952;48.396;12.806;2023-05-14T12:59:03;19.80;54.80
15705;DHT22;7952;48.396;12.806;2023-05-14T13:01:29;19.70;54.70
15705;DHT22;7952;48.396;12.806;2023-05-14T13:03:54;19.60;54.60
15705;DHT22;7952;48.396;12.806;2023-05-14T13:06:21;19.50;54.50
15705;DHT22;7952;48.396;12.806;2023-05-14T13:08:48;19.50;54.50
15705;DHT22;7952;48.396;12.806;2023-05-14T13:11:14;19.40;54.40
15705;DHT22;7952;48.396;12.806;2023-05-14T13:13:40;19.30;54.40
15705;DHT22;7952;48.396;12.806;2023-05-14T13:16:06;19.20;54.50
15705;DHT22;7952;48.396;12.806;2023-05-14T13:18:32;19.20;54.70
15705;DHT22;7952;48.396;12.806;2023-05-14T13:20:58;19.20;54.70
15705;DHT22;7952;48.396;12.806;2023-05-14T13:23:23;19.20;54.90
15705;DHT22;7952;48.396;12.806;2023-05-14T13:25:49;19.20;54.60
15705;DHT22;7952;48.396;12.806;2023-05-14T13:28:15;19.20;54.60
15705;DHT22;7952;48.396;12.806;2023-05-14T13:31:10;19.20;54.60
15705;DHT22;7952;48.396;12.806;2023-05-14T13:33:40;19.20;54.40
15705;DHT22;7952;48.396;12.806;2023-05-14T13:36:06;19.20;54.30
15705;DHT22;7952;48.396;12.806;2023-05-14T13:38:33;19.00;54.00
15705;DHT22;7952;48.396;12.806;2023-05-14T13:40:59;18.90;54.00
15705;DHT22;7952;48.396;12.806;2023-05-14T13:43:31;18.80;54.10
15705;DHT22;7952;48.396;12.806;2023-05-14T13:45:57;18.70;54.20
15705;DHT22;7952;48.396;12.806;2023-05-14T13:48:24;18.50;54.10
15705;DHT22;7952;48.396;12.806;2023-05-14T13:50:50;18.40;54.90
15705;DHT22;7952;48.396;12.806;2023-05-14T13:53:20;18.30;54.50
15705;DHT22;7952;48.396;12.806;2023-05-14T13:55:49;18.20;54.50
15705;DHT22;7952;48.396;12.806;2023-05-14T13:58:15;18.10;55.20
15705;DHT22;7952;48.396;12.806;2023-05-14T14:00:41;18.00;54.70
15705;DHT22;7952;48.396;12.806;2023-05-14T14:03:07;17.90;54.70
15705;DHT22;7952;48.396;12.806;2023-05-14T14:05:36;17.80;54.80
15705;DHT22;7952;48.396;12.806;2023-05-14T14:08:02;17.70;54.80
15705;DHT22;7952;48.396;12.806;2023-05-14T14:10:28;17.70;55.00
15705;DHT22;7952;48.396;12.806;2023-05-14T14:12:54;17.60;55.00
15705;DHT22;7952;48.396;12.806;2023-05-14T14:15:20;17.50;55.00
15705;DHT22;7952;48.396;12.806;2023-05-14T14:17:47;17.40;55.00
15705;DHT22;7952;48.396;12.806;2023-05-14T14:20:13;17.30;55.00
15705;DHT22;7952;48.396;12.806;2023-05-14T14:22:40;17.30;55.20
15705;DHT22;7952;48.396;12.806;2023-05-14T14:25:07;17.20;55.10
15705;DHT22;7952;48.396;12.806;2023-05-14T14:27:34;17.20;55.20
15705;DHT22;7952;48.396;12.806;2023-05-14T14:30:05;17.10;55.30
15705;DHT22;7952;48.396;12.806;2023-05-14T14:32:31;17.10;55.40
15705;DHT22;7952;48.396;12.806;2023-05-14T14:34:57;17.10;55.40
15705;DHT22;7952;48.396;12.806;2023-05-14T14:37:22;17.10;55.50
15705;DHT22;7952;48.396;12.806;2023-05-14T14:39:48;17.00;55.30
15705;DHT22;7952;48.396;12.806;2023-05-14T14:42:14;17.00;55.40
15705;DHT22;7952;48.396;12.806;2023-05-14T14:44:40;17.00;55.40
15705;DHT22;7952;48.396;12.806;2023-05-14T14:47:06;16.90;55.40
15705;DHT22;7952;48.396;12.806;2023-05-14T14:49:31;16.90;55.40
15705;DHT22;7952;48.396;12.806;2023-05-14T14:51:57;16.80;55.40
15705;DHT22;7952;48.396;12.806;2023-05-14T14:54:23;16.80;55.50
15705;DHT22;7952;48.396;12.806;2023-05-14T14:56:49;16.70;55.50
15705;DHT22;7952;48.396;12.806;2023-05-14T14:59:17;16.70;55.50
15705;DHT22;7952;48.396;12.806;2023-05-14T15:01:43;16.60;55.50
15705;DHT22;7952;48.396;12.806;2023-05-14T15:04:08;16.50;55.50
15705;DHT22;7952;48.396;12.806;2023-05-14T15:06:34;16.50;55.60
15705;DHT22;7952;48.396;12.806;2023-05-14T15:09:00;16.40;55.70
15705;DHT22;7952;48.396;12.806;2023-05-14T15:11:26;16.40;55.80
15705;DHT22;7952;48.396;12.806;2023-05-14T15:13:53;16.40;55.80
15705;DHT22;7952;48.396;12.806;2023-05-14T15:16:19;16.30;55.80
15705;DHT22;7952;48.396;12.806;2023-05-14T15:18:45;16.30;55.90
15705;DHT22;7952;48.396;12.806;2023-05-14T15:21:10;16.30;56.00
15705;DHT22;7952;48.396;12.806;2023-05-14T15:23:36;16.30;56.00
15705;DHT22;7952;48.396;12.806;2023-05-14T15:26:03;16.30;56.10
15705;DHT22;7952;48.396;12.806;2023-05-14T15:28:28;16.30;56.10
15705;DHT22;7952;48.396;12.806;2023-05-14T15:30:54;16.30;56.10
15705;DHT22;7952;48.396;12.806;2023-05-14T15:33:20;16.20;56.10
15705;DHT22;7952;48.396;12.806;2023-05-14T15:35:46;16.20;56.10
15705;DHT22;7952;48.396;12.806;2023-05-14T15:38:11;16.20;56.20
15705;DHT22;7952;48.396;12.806;2023-05-14T15:40:37;16.10;56.20
15705;DHT22;7952;48.396;12.806;2023-05-14T15:43:03;16.10;56.20
15705;DHT22;7952;48.396;12.806;2023-05-14T15:45:29;16.10;56.20
15705;DHT22;7952;48.396;12.806;2023-05-14T15:47:54;16.10;56.30
15705;DHT22;7952;48.396;12.806;2023-05-14T15:50:20;16.20;56.50
15705;DHT22;7952;48.396;12.806;2023-05-14T15:52:46;16.10;56.40
15705;DHT22;7952;48.396;12.806;2023-05-14T15:55:12;16.10;56.50
15705;DHT22;7952;48.396;12.806;2023-05-14T15:57:38;16.00;56.40